sensor_id;sensor_type;location;lat;lon;timestamp;temperature;humidity
60701;DHT22;46541;49.894;10.886;2024-02-15T00:00:53;9.90;99.90
60701;DHT22;46541;49.894;10.886;2024-02-15T00:03:20;9.90;99.90
60701;DHT22;46541;49.894;10.886;2024-02-15T00:05:48;9.90;99.90
60701;DHT22;46541;49.894;10.886;2024-02-15T00:08:15;10.00;99.90
60701;DHT22;46541;49.894;10.886;2024-02-15T00:10:42;10.00;99.90
60701;DHT22;46541;49.894;10.886;2024-02-15T00:13:09;10.00;99.90
60701;DHT22;46541;49.894;10.886;2024-02-15T00:15:36;10.00;99.90
60701;DHT22;46541;49.894;10.886;2024-02-15T00:18:04;10.00;99.90
60701;DHT22;46541;49.894;10.886;2024-02-15T00:20:31;10.00;99.90
60701;DHT22;46541;49.894;10.886;2024-02-15T00:23:00;10.00;99.90
60701;DHT22;46541;49.894;10.886;2024-02-15T00:25:27;10.00;99.90
60701;DHT22;46541;49.894;10.886;2024-02-15T00:27:54;10.00;99.90
60701;DHT22;46541;49.894;10.886;2024-02-15T00:30:20;10.10;99.90
60701;DHT22;46541;49.894;10.886;2024-02-15T00:32:48;10.10;99.90
60701;DHT22;46541;49.894;10.886;2024-02-15T00:35:16;10.10;99.90
60701;DHT22;46541;49.894;10.886;2024-02-15T00:37:43;10.10;99.90
60701;DHT22;46541;49.894;10.886;2024-02-15T00:40:11;10.00;99.90
60701;DHT22;46541;49.894;10.886;2024-02-15T00:42:38;10.10;99.90
60701;DHT22;46541;49.894;10.886;2024-02-15T00:45:06;10.00;99.90
60701;DHT22;46541;49.894;10.886;2024-02-15T00:47:36;10.10;99.90
60701;DHT22;46541;49.894;10.886;2024-02-15T00:50:05;10.10;99.90
60701;DHT22;46541;49.894;10.886;2024-02-15T00:52:32;10.10;99.90
60701;DHT22;46541;49.894;10.886;2024-02-15T00:54:59;10.10;99.90
60701;DHT22;46541;49.894;10.886;2024-02-15T00:57:25;10.10;99.90
60701;DHT22;46541;49.894;10.886;2024-02-15T00:59:52;10.10;99.90
60701;DHT22;46541;49.894;10.886;2024-02-15T01:02:19;10.10;99.90
60701;DHT22;46541;49.894;10.886;2024-02-15T01:04:46;10.10;99.90
60701;DHT22;46541;49.894;10.886;2024-02-15T01:07:13;10.10;99.90
60701;DHT22;46541;49.894;10.886;2024-02-15T01:09:40;10.10;99.90
60701;DHT22;46541;49.894;10.886;2024-02-15T01:12:06;10.00;99.90
60701;DHT22;46541;49.894;10.886;2024-02-15T01:14:33;10.10;99.90
60701;DHT22;46541;49.894;10.886;2024-02-15T01:17:01;10.10;99.90
60701;DHT22;46541;49.894;10.886;2024-02-15T01:19:28;10.10;99.90
60701;DHT22;46541;49.894;10.886;2024-02-15T01:21:55;10.10;99.90
60701;DHT22;46541;49.894;10.886;2024-02-15T01:24:22;10.10;99.90
60701;DHT22;46541;49.894;10.886;2024-02-15T01:26:48;10.10;99.90
60701;DHT22;46541;49.894;10.886;2024-02-15T01:29:16;10.00;99.90
60701;DHT22;46541;49.894;10.886;2024-02-15T01:31:43;10.00;99.90
60701;DHT22;46541;49.894;10.886;2024-02-15T01:34:10;10.10;99.90
60701;DHT22;46541;49.894;10.886;2024-02-15T01:36:37;10.00;99.90
60701;DHT22;46541;49.894;10.886;2024-02-15T01:39:03;10.00;99.90
60701;DHT22;46541;49.894;10.886;2024-02-15T01:41:30;10.00;99.90
60701;DHT22;46541;49.894;10.886;2024-02-15T01:43:58;10.00;99.90
60701;DHT22;46541;49.894;10.886;2024-02-15T01:46:25;10.00;99.90
60701;DHT22;46541;49.894;10.886;2024-02-15T01:48:52;10.00;99.90
60701;DHT22;46541;49.894;10.886;2024-02-15T01:51:19;10.00;99.90
60701;DHT22;46541;49.894;10.886;2024-02-15T01:53:46;10.00;99.90
60701;DHT22;46541;49.894;10.886;2024-02-15T01:56:14;10.00;99.90
60701;DHT22;46541;49.894;10.886;2024-02-15T01:58:42;10.00;99.90
60701;DHT22;46541;49.894;10.886;2024-02-15T02:01:09;9.90;99.90
60701;DHT22;46541;49.894;10.886;2024-02-15T02:03:39;10.00;99.90
60701;DHT22;46541;49.894;10.886;2024-02-15T02:06:06;9.90;99.90
60701;DHT22;46541;49.894;10.886;2024-02-15T02:08:33;9.90;99.90
60701;DHT22;46541;49.894;10.886;2024-02-15T02:11:00;9.90;99.90
60701;DHT22;46541;49.894;10.886;2024-02-15T02:13:28;9.90;99.90
60701;DHT22;46541;49.894;10.886;2024-02-15T02:15:57;9.90;99.90
60701;DHT22;46541;49.894;10.886;2024-02-15T02:18:23;9.90;99.90
60701;DHT22;46541;49.894;10.886;2024-02-15T02:20:51;9.90;99.90
60701;DHT22;46541;49.894;10.886;2024-02-15T02:23:21;9.90;99.90
60701;DHT22;46541;49.894;10.886;2024-02-15T02:25:50;9.90;99.90
60701;DHT22;46541;49.894;10.886;2024-02-15T02:28:17;9.90;99.90
60701;DHT22;46541;49.894;10.886;2024-02-15T02:30:43;9.90;99.90
60701;DHT22;46541;49.894;10.886;2024-02-15T02:33:12;9.90;99.90
60701;DHT22;46541;49.894;10.886;2024-02-15T02:35:47;9.90;99.90
60701;DHT22;46541;49.894;10.886;2024-02-15T02:38:14;10.00;99.90
60701;DHT22;46541;49.894;10.886;2024-02-15T02:40:41;9.90;99.90
60701;DHT22;46541;49.894;10.886;2024-02-15T02:43:08;9.90;99.90
60701;DHT22;46541;49.894;10.886;2024-02-15T02:45:36;9.90;99.90
60701;DHT22;46541;49.894;10.886;2024-02-15T02:48:04;10.00;99.90
60701;DHT22;46541;49.894;10.886;2024-02-15T02:50:31;10.00;99.90
60701;DHT22;46541;49.894;10.886;2024-02-15T02:52:58;9.90;99.90
60701;DHT22;46541;49.894;10.886;2024-02-15T02:55:25;9.90;99.90
60701;DHT22;46541;49.894;10.886;2024-02-15T02:57:53;9.90;99.90
60701;DHT22;46541;49.894;10.886;2024-02-15T03:00:21;9.90;99.90
60701;DHT22;46541;49.894;10.886;2024-02-15T03:02:49;9.90;99.90
60701;DHT22;46541;49.894;10.886;2024-02-15T03:05:16;9.90;99.90
60701;DHT22;46541;49.894;10.886;2024-02-15T03:07:43;9.90;99.90
60701;DHT22;46541;49.894;10.886;2024-02-15T03:10:11;9.90;99.90
60701;DHT22;46541;49.894;10.886;2024-02-15T03:12:40;9.90;99.90
60701;DHT22;46541;49.894;10.886;2024-02-15T03:15:13;9.90;99.90
60701;DHT22;46541;49.894;10.886;2024-02-15T03:17:42;9.90;99.90
60701;DHT22;46541;49.894;10.886;2024-02-15T03:20:10;9.90;99.90
60701;DHT22;46541;49.894;10.886;2024-02-15T03:22:57;9.90;99.90
60701;DHT22;46541;49.894;10.886;2024-02-15T03:25:25;9.90;99.90
60701;DHT22;46541;49.894;10.886;2024-02-15T03:27:54;9.90;99.90
60701;DHT22;46541;49.894;10.886;2024-02-15T03:30:23;9.80;99.90
60701;DHT22;46541;49.894;10.886;2024-02-15T03:32:53;9.80;99.90
60701;DHT22;46541;49.894;10.886;2024-02-15T03:35:24;9.80;99.90
60701;DHT22;46541;49.894;10.886;2024-02-15T03:37:52;9.80;99.90
60701;DHT22;46541;49.894;10.886;2024-02-15T03:40:20;9.80;99.90
60701;DHT22;46541;49.894;10.886;2024-02-15T03:42:47;9.80;99.90
60701;DHT22;46541;49.894;10.886;2024-02-15T03:45:14;9.80;99.90
60701;DHT22;46541;49.894;10.886;2024-02-15T03:47:41;9.80;99.90
60701;DHT22;46541;49.894;10.886;2024-02-15T03:50:08;9.80;99.90
60701;DHT22;46541;49.894;10.886;2024-02-15T03:52:41;9.70;99.90
60701;DHT22;46541;49.894;10.886;2024-02-15T03:55:08;9.70;99.90
60701;DHT22;46541;49.894;10.886;2024-02-15T03:57:39;9.70;99.90
60701;DHT22;46541;49.894;10.886;2024-02-15T04:00:13;9.70;99.90
60701;DHT22;46541;49.894;10.886;2024-02-15T04:02:48;9.70;99.90
60701;DHT22;46541;49.894;10.886;2024-02-15T04:05:15;9.70;99.90
60701;DHT22;46541;49.894;10.886;2024-02-15T04:07:44;9.70;99.90
60701;DHT22;46541;49.894;10.886;2024-02-15T04:10:11;9.70;99.90
60701;DHT22;46541;49.894;10.886;2024-02-15T04:12:38;9.70;99.90
60701;DHT22;46541;49.894;10.886;2024-02-15T04:15:08;9.70;99.90
60701;DHT22;46541;49.894;10.886;2024-02-15T04:17:41;9.70;99.90
60701;DHT22;46541;49.894;10.886;2024-02-15T04:20:10;9.70;99.90
60701;DHT22;46541;49.894;10.886;2024-02-15T04:22:38;9.70;99.90
60701;DHT22;46541;49.894;10.886;2024-02-15T04:25:06;9.70;99.90
60701;DHT22;46541;49.894;10.886;2024-02-15T04:27:33;9.80;99.90
60701;DHT22;46541;49.894;10.886;2024-02-15T04:30:01;9.80;99.90
60701;DHT22;46541;49.894;10.886;2024-02-15T04:32:29;9.80;99.90
60701;DHT22;46541;49.894;10.886;2024-02-15T04:35:00;9.80;99.90
60701;DHT22;46541;49.894;10.886;2024-02-15T04:37:28;9.90;99.90
60701;DHT22;46541;49.894;10.886;2024-02-15T04:39:59;9.80;99.90
60701;DHT22;46541;49.894;10.886;2024-02-15T04:42:34;9.90;99.90
60701;DHT22;46541;49.894;10.886;2024-02-15T04:45:02;9.80;99.90
60701;DHT22;46541;49.894;10.886;2024-02-15T04:47:30;9.90;99.90
60701;DHT22;46541;49.894;10.886;2024-02-15T04:49:57;9.90;99.90
60701;DHT22;46541;49.894;10.886;2024-02-15T04:52:23;9.90;99.90
60701;DHT22;46541;49.894;10.886;2024-02-15T04:54:51;9.90;99.90
60701;DHT22;46541;49.894;10.886;2024-02-15T04:57:17;9.90;99.90
60701;DHT22;46541;49.894;10.886;2024-02-15T04:59:44;9.90;99.90
60701;DHT22;46541;49.894;10.886;2024-02-15T05:02:14;9.90;99.90
60701;DHT22;46541;49.894;10.886;2024-02-15T05:04:41;9.90;99.90
60701;DHT22;46541;49.894;10.886;2024-02-15T05:07:10;9.90;99.90
60701;DHT22;46541;49.894;10.886;2024-02-15T05:09:37;9.90;99.90
60701;DHT22;46541;49.894;10.886;2024-02-15T05:12:04;9.90;99.90
60701;DHT22;46541;49.894;10.886;2024-02-15T05:14:32;9.90;99.90
60701;DHT22;46541;49.894;10.886;2024-02-15T05:16:59;9.90;99.90
60701;DHT22;46541;49.894;10.886;2024-02-15T05:19:27;9.90;99.90
60701;DHT22;46541;49.894;10.886;2024-02-15T05:21:54;9.90;99.90
60701;DHT22;46541;49.894;10.886;2024-02-15T05:24:22;9.90;99.90
60701;DHT22;46541;49.894;10.886;2024-02-15T05:26:49;9.90;99.90
60701;DHT22;46541;49.894;10.886;2024-02-15T05:29:17;9.90;99.90
60701;DHT22;46541;49.894;10.886;2024-02-15T05:31:44;9.90;99.90
60701;DHT22;46541;49.894;10.886;2024-02-15T05:34:11;9.90;99.90
60701;DHT22;46541;49.894;10.886;2024-02-15T05:36:39;9.90;99.90
60701;DHT22;46541;49.894;10.886;2024-02-15T05:39:06;9.90;99.90
60701;DHT22;46541;49.894;10.886;2024-02-15T05:41:34;9.90;99.90
60701;DHT22;46541;49.894;10.886;2024-02-15T05:44:01;9.90;99.90
60701;DHT22;46541;49.894;10.886;2024-02-15T05:46:31;9.90;99.90
60701;DHT22;46541;49.894;10.886;2024-02-15T05:48:57;9.90;99.90
60701;DHT22;46541;49.894;10.886;2024-02-15T05:51:26;9.90;99.90
60701;DHT22;46541;49.894;10.886;2024-02-15T05:53:53;9.90;99.90
60701;DHT22;46541;49.894;10.886;2024-02-15T05:56:25;9.90;99.90
60701;DHT22;46541;49.894;10.886;2024-02-15T05:58:52;9.90;99.90
60701;DHT22;46541;49.894;10.886;2024-02-15T06:01:19;9.90;99.90
60701;DHT22;46541;49.894;10.886;2024-02-15T06:03:46;9.90;99.90
60701;DHT22;46541;49.894;10.886;2024-02-15T06:06:15;9.90;99.90
60701;DHT22;46541;49.894;10.886;2024-02-15T06:08:46;9.90;99.90
60701;DHT22;46541;49.894;10.886;2024-02-15T06:11:19;9.90;99.90
60701;DHT22;46541;49.894;10.886;2024-02-15T06:13:47;9.90;99.90
60701;DHT22;46541;49.894;10.886;2024-02-15T06:16:14;9.90;99.90
60701;DHT22;46541;49.894;10.886;2024-02-15T06:18:40;9.90;99.90
60701;DHT22;46541;49.894;10.886;2024-02-15T06:21:07;9.90;99.90
60701;DHT22;46541;49.894;10.886;2024-02-15T06:23:35;9.90;99.90
60701;DHT22;46541;49.894;10.886;2024-02-15T06:26:04;9.90;99.90
60701;DHT22;46541;49.894;10.886;2024-02-15T06:28:30;10.00;99.90
60701;DHT22;46541;49.894;10.886;2024-02-15T06:31:16;10.00;99.90
60701;DHT22;46541;49.894;10.886;2024-02-15T06:34:01;10.00;99.90
60701;DHT22;46541;49.894;10.886;2024-02-15T06:36:53;10.00;99.90
60701;DHT22;46541;49.894;10.886;2024-02-15T06:39:38;10.00;99.90
60701;DHT22;46541;49.894;10.886;2024-02-15T06:42:10;10.00;99.90
60701;DHT22;46541;49.894;10.886;2024-02-15T06:44:38;10.00;99.90
60701;DHT22;46541;49.894;10.886;2024-02-15T06:47:07;10.00;99.90
60701;DHT22;46541;49.894;10.886;2024-02-15T06:49:35;10.00;99.90
60701;DHT22;46541;49.894;10.886;2024-02-15T06:52:02;10.00;99.90
60701;DHT22;46541;49.894;10.886;2024-02-15T06:54:29;10.00;99.90
60701;DHT22;46541;49.894;10.886;2024-02-15T06:56:56;10.10;99.90
60701;DHT22;46541;49.894;10.886;2024-02-15T06:59:23;10.10;99.90
60701;DHT22;46541;49.894;10.886;2024-02-15T07:01:50;10.10;99.90
60701;DHT22;46541;49.894;10.886;2024-02-15T07:04:19;10.10;99.90
60701;DHT22;46541;49.894;10.886;2024-02-15T07:06:47;10.10;99.90
60701;DHT22;46541;49.894;10.886;2024-02-15T07:09:16;10.10;99.90
60701;DHT22;46541;49.894;10.886;2024-02-15T07:11:45;10.10;99.90
60701;DHT22;46541;49.894;10.886;2024-02-15T07:14:17;10.10;99.90
60701;DHT22;46541;49.894;10.886;2024-02-15T07:16:48;10.10;99.90
60701;DHT22;46541;49.894;10.886;2024-02-15T07:19:16;10.10;99.90
60701;DHT22;46541;49.894;10.886;2024-02-15T07:21:43;10.20;99.90
60701;DHT22;46541;49.894;10.886;2024-02-15T07:24:10;10.20;99.90
60701;DHT22;46541;49.894;10.886;2024-02-15T07:26:37;10.20;99.90
60701;DHT22;46541;49.894;10.886;2024-02-15T07:29:04;10.30;99.90
60701;DHT22;46541;49.894;10.886;2024-02-15T07:31:32;10.30;99.90
60701;DHT22;46541;49.894;10.886;2024-02-15T07:34:02;10.30;99.90
60701;DHT22;46541;49.894;10.886;2024-02-15T07:36:32;10.30;99.90
60701;DHT22;46541;49.894;10.886;2024-02-15T07:38:59;10.30;99.90
60701;DHT22;46541;49.894;10.886;2024-02-15T07:41:28;10.40;99.90
60701;DHT22;46541;49.894;10.886;2024-02-15T07:43:55;10.40;99.90
60701;DHT22;46541;49.894;10.886;2024-02-15T07:46:22;10.40;99.90
60701;DHT22;46541;49.894;10.886;2024-02-15T07:48:51;10.50;99.90
60701;DHT22;46541;49.894;10.886;2024-02-15T07:51:22;10.50;99.90
60701;DHT22;46541;49.894;10.886;2024-02-15T07:53:49;10.50;99.90
60701;DHT22;46541;49.894;10.886;2024-02-15T07:56:17;10.50;99.90
60701;DHT22;46541;49.894;10.886;2024-02-15T07:58:47;10.50;99.90
60701;DHT22;46541;49.894;10.886;2024-02-15T08:01:19;10.50;99.90
60701;DHT22;46541;49.894;10.886;2024-02-15T08:03:52;10.60;99.90
60701;DHT22;46541;49.894;10.886;2024-02-15T08:06:21;10.60;99.90
60701;DHT22;46541;49.894;10.886;2024-02-15T08:08:50;10.60;99.90
60701;DHT22;46541;49.894;10.886;2024-02-15T08:11:19;10.60;99.90
60701;DHT22;46541;49.894;10.886;2024-02-15T08:13:50;10.70;99.90
60701;DHT22;46541;49.894;10.886;2024-02-15T08:16:23;10.70;99.90
60701;DHT22;46541;49.894;10.886;2024-02-15T08:18:50;10.70;99.90
60701;DHT22;46541;49.894;10.886;2024-02-15T08:21:28;10.80;99.90
60701;DHT22;46541;49.894;10.886;2024-02-15T08:23:56;10.80;99.90
60701;DHT22;46541;49.894;10.886;2024-02-15T08:26:23;10.90;99.90
60701;DHT22;46541;49.894;10.886;2024-02-15T08:28:50;10.90;99.90
60701;DHT22;46541;49.894;10.886;2024-02-15T08:31:17;10.90;99.90
60701;DHT22;46541;49.894;10.886;2024-02-15T08:33:45;10.90;99.90
60701;DHT22;46541;49.894;10.886;2024-02-15T08:36:13;11.00;99.90
60701;DHT22;46541;49.894;10.886;2024-02-15T08:38:43;11.00;99.90
60701;DHT22;46541;49.894;10.886;2024-02-15T08:41:12;11.10;99.90
60701;DHT22;46541;49.894;10.886;2024-02-15T08:43:39;11.10;99.90
60701;DHT22;46541;49.894;10.886;2024-02-15T08:46:07;11.30;99.90
60701;DHT22;46541;49.894;10.886;2024-02-15T08:48:35;11.30;99.90
60701;DHT22;46541;49.894;10.886;2024-02-15T08:51:02;11.30;99.90
60701;DHT22;46541;49.894;10.886;2024-02-15T08:53:30;11.40;99.90
60701;DHT22;46541;49.894;10.886;2024-02-15T08:55:58;11.40;99.90
60701;DHT22;46541;49.894;10.886;2024-02-15T08:58:26;11.40;99.90
60701;DHT22;46541;49.894;10.886;2024-02-15T09:00:53;11.50;99.90
60701;DHT22;46541;49.894;10.886;2024-02-15T09:03:21;11.60;99.90
60701;DHT22;46541;49.894;10.886;2024-02-15T09:05:48;11.60;99.90
60701;DHT22;46541;49.894;10.886;2024-02-15T09:08:15;11.60;99.90
60701;DHT22;46541;49.894;10.886;2024-02-15T09:10:42;11.70;99.90
60701;DHT22;46541;49.894;10.886;2024-02-15T09:13:09;11.90;99.90
60701;DHT22;46541;49.894;10.886;2024-02-15T09:15:36;12.00;99.90
60701;DHT22;46541;49.894;10.886;2024-02-15T09:18:03;12.00;99.90
60701;DHT22;46541;49.894;10.886;2024-02-15T09:20:30;12.20;99.90
60701;DHT22;46541;49.894;10.886;2024-02-15T09:22:58;12.20;99.90
60701;DHT22;46541;49.894;10.886;2024-02-15T09:25:26;12.20;99.90
60701;DHT22;46541;49.894;10.886;2024-02-15T09:27:53;12.30;99.90
60701;DHT22;46541;49.894;10.886;2024-02-15T09:30:22;12.30;99.90
60701;DHT22;46541;49.894;10.886;2024-02-15T09:32:51;12.40;99.90
60701;DHT22;46541;49.894;10.886;2024-02-15T09:35:18;12.40;99.90
60701;DHT22;46541;49.894;10.886;2024-02-15T09:37:47;12.40;99.90
60701;DHT22;46541;49.894;10.886;2024-02-15T09:40:18;12.60;99.90
60701;DHT22;46541;49.894;10.886;2024-02-15T09:42:46;12.70;99.90
60701;DHT22;46541;49.894;10.886;2024-02-15T09:45:14;12.70;99.90
60701;DHT22;46541;49.894;10.886;2024-02-15T09:47:45;12.90;99.90
60701;DHT22;46541;49.894;10.886;2024-02-15T09:50:17;12.90;99.90
60701;DHT22;46541;49.894;10.886;2024-02-15T09:52:51;13.00;99.90
60701;DHT22;46541;49.894;10.886;2024-02-15T09:55:20;13.00;99.90
60701;DHT22;46541;49.894;10.886;2024-02-15T09:57:50;13.00;99.90
60701;DHT22;46541;49.894;10.886;2024-02-15T10:00:17;13.00;99.90
60701;DHT22;46541;49.894;10.886;2024-02-15T10:02:49;13.10;99.90
60701;DHT22;46541;49.894;10.886;2024-02-15T10:05:17;13.10;99.90
60701;DHT22;46541;49.894;10.886;2024-02-15T10:07:45;13.20;99.90
60701;DHT22;46541;49.894;10.886;2024-02-15T10:12:48;13.30;99.90
60701;DHT22;46541;49.894;10.886;2024-02-15T10:17:58;13.40;99.90
60701;DHT22;46541;49.894;10.886;2024-02-15T10:20:26;13.40;99.90
60701;DHT22;46541;49.894;10.886;2024-02-15T10:23:08;13.40;99.90
60701;DHT22;46541;49.894;10.886;2024-02-15T10:25:37;13.50;99.90
60701;DHT22;46541;49.894;10.886;2024-02-15T10:28:05;13.60;99.90
60701;DHT22;46541;49.894;10.886;2024-02-15T10:30:35;13.70;99.90
60701;DHT22;46541;49.894;10.886;2024-02-15T10:33:03;13.70;99.90
60701;DHT22;46541;49.894;10.886;2024-02-15T10:35:31;13.60;99.90
60701;DHT22;46541;49.894;10.886;2024-02-15T10:38:08;13.70;99.90
60701;DHT22;46541;49.894;10.886;2024-02-15T10:40:35;13.80;99.90
60701;DHT22;46541;49.894;10.886;2024-02-15T10:43:05;13.90;99.90
60701;DHT22;46541;49.894;10.886;2024-02-15T10:45:32;13.90;99.90
60701;DHT22;46541;49.894;10.886;2024-02-15T10:47:59;14.00;99.90
60701;DHT22;46541;49.894;10.886;2024-02-15T10:50:26;14.10;99.90
60701;DHT22;46541;49.894;10.886;2024-02-15T10:52:58;14.00;99.90
60701;DHT22;46541;49.894;10.886;2024-02-15T10:58:10;14.10;99.90
60701;DHT22;46541;49.894;10.886;2024-02-15T11:00:40;14.20;99.90
60701;DHT22;46541;49.894;10.886;2024-02-15T11:03:10;14.20;99.90
60701;DHT22;46541;49.894;10.886;2024-02-15T11:05:42;14.30;99.90
60701;DHT22;46541;49.894;10.886;2024-02-15T11:08:10;14.30;99.90
60701;DHT22;46541;49.894;10.886;2024-02-15T11:10:39;14.30;99.90
60701;DHT22;46541;49.894;10.886;2024-02-15T11:13:10;14.40;99.90
60701;DHT22;46541;49.894;10.886;2024-02-15T11:15:44;14.40;99.90
60701;DHT22;46541;49.894;10.886;2024-02-15T11:18:48;14.50;99.90
60701;DHT22;46541;49.894;10.886;2024-02-15T11:21:16;14.50;99.90
60701;DHT22;46541;49.894;10.886;2024-02-15T11:23:44;14.50;99.90
60701;DHT22;46541;49.894;10.886;2024-02-15T11:26:43;14.50;99.90
60701;DHT22;46541;49.894;10.886;2024-02-15T11:32:42;14.70;99.90
60701;DHT22;46541;49.894;10.886;2024-02-15T11:35:27;14.60;99.90
60701;DHT22;46541;49.894;10.886;2024-02-15T11:37:58;14.60;99.90
60701;DHT22;46541;49.894;10.886;2024-02-15T11:43:09;14.40;99.90
60701;DHT22;46541;49.894;10.886;2024-02-15T11:45:37;14.40;99.90
60701;DHT22;46541;49.894;10.886;2024-02-15T11:48:08;14.50;99.90
60701;DHT22;46541;49.894;10.886;2024-02-15T11:50:40;14.40;99.90
60701;DHT22;46541;49.894;10.886;2024-02-15T11:53:07;14.50;99.90
60701;DHT22;46541;49.894;10.886;2024-02-15T11:55:39;14.50;99.90
60701;DHT22;46541;49.894;10.886;2024-02-15T11:58:08;14.40;99.90
60701;DHT22;46541;49.894;10.886;2024-02-15T12:00:39;14.50;99.90
60701;DHT22;46541;49.894;10.886;2024-02-15T12:03:25;14.60;99.90
60701;DHT22;46541;49.894;10.886;2024-02-15T12:06:29;14.60;99.90
60701;DHT22;46541;49.894;10.886;2024-02-15T12:09:18;14.70;99.90
60701;DHT22;46541;49.894;10.886;2024-02-15T12:12:17;14.80;99.90
60701;DHT22;46541;49.894;10.886;2024-02-15T12:15:19;14.80;99.90
60701;DHT22;46541;49.894;10.886;2024-02-15T12:18:17;14.80;99.90
60701;DHT22;46541;49.894;10.886;2024-02-15T12:21:03;14.80;99.90
60701;DHT22;46541;49.894;10.886;2024-02-15T12:23:32;14.90;99.90
60701;DHT22;46541;49.894;10.886;2024-02-15T12:26:01;14.90;99.90
60701;DHT22;46541;49.894;10.886;2024-02-15T12:28:31;15.10;99.90
60701;DHT22;46541;49.894;10.886;2024-02-15T12:30:57;15.10;99.90
60701;DHT22;46541;49.894;10.886;2024-02-15T12:33:24;15.10;99.90
60701;DHT22;46541;49.894;10.886;2024-02-15T12:36:06;15.20;99.90
60701;DHT22;46541;49.894;10.886;2024-02-15T12:38:35;15.40;99.90
60701;DHT22;46541;49.894;10.886;2024-02-15T12:41:20;15.50;99.90
60701;DHT22;46541;49.894;10.886;2024-02-15T12:43:52;15.50;99.90
60701;DHT22;46541;49.894;10.886;2024-02-15T12:46:19;15.60;99.90
60701;DHT22;46541;49.894;10.886;2024-02-15T12:48:46;15.60;99.90
60701;DHT22;46541;49.894;10.886;2024-02-15T12:51:14;15.60;99.90
60701;DHT22;46541;49.894;10.886;2024-02-15T12:53:41;15.70;99.90
60701;DHT22;46541;49.894;10.886;2024-02-15T12:56:08;15.70;99.90
60701;DHT22;46541;49.894;10.886;2024-02-15T12:58:36;15.60;99.90
60701;DHT22;46541;49.894;10.886;2024-02-15T13:01:03;15.60;99.90
60701;DHT22;46541;49.894;10.886;2024-02-15T13:03:31;15.50;99.90
60701;DHT22;46541;49.894;10.886;2024-02-15T13:05:58;15.50;99.90
60701;DHT22;46541;49.894;10.886;2024-02-15T13:08:24;15.40;99.90
60701;DHT22;46541;49.894;10.886;2024-02-15T13:10:51;15.40;99.90
60701;DHT22;46541;49.894;10.886;2024-02-15T13:13:18;15.40;99.90
60701;DHT22;46541;49.894;10.886;2024-02-15T13:15:47;15.30;99.90
60701;DHT22;46541;49.894;10.886;2024-02-15T13:18:18;15.40;99.90
60701;DHT22;46541;49.894;10.886;2024-02-15T13:20:45;15.40;99.90
60701;DHT22;46541;49.894;10.886;2024-02-15T13:23:16;15.30;99.90
60701;DHT22;46541;49.894;10.886;2024-02-15T13:25:49;15.30;99.90
60701;DHT22;46541;49.894;10.886;2024-02-15T13:28:16;15.30;99.90
60701;DHT22;46541;49.894;10.886;2024-02-15T13:30:44;15.20;99.90
60701;DHT22;46541;49.894;10.886;2024-02-15T13:33:12;15.20;99.90
60701;DHT22;46541;49.894;10.886;2024-02-15T13:35:40;15.20;99.90
60701;DHT22;46541;49.894;10.886;2024-02-15T13:38:07;15.10;99.90
60701;DHT22;46541;49.894;10.886;2024-02-15T13:40:42;15.10;99.90
60701;DHT22;46541;49.894;10.886;2024-02-15T13:43:09;15.10;99.90
60701;DHT22;46541;49.894;10.886;2024-02-15T13:45:43;15.00;99.90
60701;DHT22;46541;49.894;10.886;2024-02-15T13:48:11;15.00;99.90
60701;DHT22;46541;49.894;10.886;2024-02-15T13:50:42;14.90;99.90
60701;DHT22;46541;49.894;10.886;2024-02-15T13:53:12;14.80;99.90
60701;DHT22;46541;49.894;10.886;2024-02-15T13:55:40;14.80;99.90
60701;DHT22;46541;49.894;10.886;2024-02-15T13:58:07;14.70;99.90
60701;DHT22;46541;49.894;10.886;2024-02-15T14:00:36;14.70;99.90
60701;DHT22;46541;49.894;10.886;2024-02-15T14:03:04;14.70;99.90
60701;DHT22;46541;49.894;10.886;2024-02-15T14:05:33;14.60;99.90
60701;DHT22;46541;49.894;10.886;2024-02-15T14:08:04;14.60;99.90
60701;DHT22;46541;49.894;10.886;2024-02-15T14:10:37;14.60;99.90
60701;DHT22;46541;49.894;10.886;2024-02-15T14:13:05;14.60;99.90
60701;DHT22;46541;49.894;10.886;2024-02-15T14:15:36;14.60;99.90
60701;DHT22;46541;49.894;10.886;2024-02-15T14:18:09;14.60;99.90
60701;DHT22;46541;49.894;10.886;2024-02-15T14:20:45;14.60;99.90
60701;DHT22;46541;49.894;10.886;2024-02-15T14:23:16;14.60;99.90
60701;DHT22;46541;49.894;10.886;2024-02-15T14:25:43;14.60;99.90
60701;DHT22;46541;49.894;10.886;2024-02-15T14:28:11;14.60;99.90
60701;DHT22;46541;49.894;10.886;2024-02-15T14:30:39;14.60;99.90
60701;DHT22;46541;49.894;10.886;2024-02-15T14:33:25;14.60;99.90
60701;DHT22;46541;49.894;10.886;2024-02-15T14:36:00;14.60;99.90
60701;DHT22;46541;49.894;10.886;2024-02-15T14:38:28;14.50;99.90
60701;DHT22;46541;49.894;10.886;2024-02-15T14:40:55;14.50;99.90
60701;DHT22;46541;49.894;10.886;2024-02-15T14:43:25;14.50;99.90
60701;DHT22;46541;49.894;10.886;2024-02-15T14:45:53;14.50;99.90
60701;DHT22;46541;49.894;10.886;2024-02-15T14:48:20;14.40;99.90
60701;DHT22;46541;49.894;10.886;2024-02-15T14:50:48;14.40;99.90
60701;DHT22;46541;49.894;10.886;2024-02-15T14:53:18;14.30;99.90
60701;DHT22;46541;49.894;10.886;2024-02-15T14:55:45;14.30;99.90
60701;DHT22;46541;49.894;10.886;2024-02-15T14:58:16;14.20;99.90
60701;DHT22;46541;49.894;10.886;2024-02-15T15:00:45;14.20;99.90
60701;DHT22;46541;49.894;10.886;2024-02-15T15:03:14;14.20;99.90
60701;DHT22;46541;49.894;10.886;2024-02-15T15:05:41;14.10;99.90
60701;DHT22;46541;49.894;10.886;2024-02-15T15:08:28;14.00;99.90
60701;DHT22;46541;49.894;10.886;2024-02-15T15:11:14;13.90;99.90
60701;DHT22;46541;49.894;10.886;2024-02-15T15:13:59;13.90;99.90
60701;DHT22;46541;49.894;10.886;2024-02-15T15:16:26;13.80;99.90
60701;DHT22;46541;49.894;10.886;2024-02-15T15:18:55;13.80;99.90
60701;DHT22;46541;49.894;10.886;2024-02-15T15:21:22;13.80;99.90
60701;DHT22;46541;49.894;10.886;2024-02-15T15:23:50;13.70;99.90
60701;DHT22;46541;49.894;10.886;2024-02-15T15:26:22;13.70;99.90
60701;DHT22;46541;49.894;10.886;2024-02-15T15:28:49;13.70;99.90
60701;DHT22;46541;49.894;10.886;2024-02-15T15:31:16;13.70;99.90
60701;DHT22;46541;49.894;10.886;2024-02-15T15:33:44;13.70;99.90
60701;DHT22;46541;49.894;10.886;2024-02-15T15:36:11;13.60;99.90
60701;DHT22;46541;49.894;10.886;2024-02-15T15:38:38;13.50;99.90
60701;DHT22;46541;49.894;10.886;2024-02-15T15:41:09;13.50;99.90
60701;DHT22;46541;49.894;10.886;2024-02-15T15:43:36;13.40;99.90
60701;DHT22;46541;49.894;10.886;2024-02-15T15:46:04;13.40;99.90
60701;DHT22;46541;49.894;10.886;2024-02-15T15:48:31;13.30;99.90